sensor_id;sensor_type;location;lat;lon;timestamp;P1;durP1;ratioP1;P2;durP2;ratioP2
25449;SDS011;13371;52.080;5.624;2022-07-31T00:02:19;5.47;;;2.40;;
25449;SDS011;13371;52.080;5.624;2022-07-31T00:04:44;6.45;;;2.58;;
25449;SDS011;13371;52.080;5.624;2022-07-31T00:07:10;6.18;;;2.60;;
25449;SDS011;13371;52.080;5.624;2022-07-31T00:09:36;4.43;;;2.78;;
25449;SDS011;13371;52.080;5.624;2022-07-31T00:12:02;5.43;;;2.60;;
25449;SDS011;13371;52.080;5.624;2022-07-31T00:14:28;4.78;;;2.47;;
25449;SDS011;13371;52.080;5.624;2022-07-31T00:16:54;4.53;;;2.70;;
25449;SDS011;13371;52.080;5.624;2022-07-31T00:19:21;7.90;;;3.50;;
25449;SDS011;13371;52.080;5.624;2022-07-31T00:21:47;4.80;;;2.65;;
25449;SDS011;13371;52.080;5.624;2022-07-31T00:24:12;5.60;;;3.13;;
25449;SDS011;13371;52.080;5.624;2022-07-31T00:26:38;4.68;;;3.10;;
25449;SDS011;13371;52.080;5.624;2022-07-31T00:29:04;5.13;;;3.33;;
25449;SDS011;13371;52.080;5.624;2022-07-31T00:31:30;5.10;;;3.17;;
25449;SDS011;13371;52.080;5.624;2022-07-31T00:33:56;6.75;;;3.40;;
25449;SDS011;13371;52.080;5.624;2022-07-31T00:36:22;8.05;;;3.20;;
25449;SDS011;13371;52.080;5.624;2022-07-31T00:38:47;4.22;;;2.30;;
25449;SDS011;13371;52.080;5.624;2022-07-31T00:41:13;6.95;;;2.40;;
25449;SDS011;13371;52.080;5.624;2022-07-31T00:43:38;5.22;;;2.75;;
25449;SDS011;13371;52.080;5.624;2022-07-31T00:46:04;5.78;;;2.65;;
25449;SDS011;13371;52.080;5.624;2022-07-31T00:48:31;4.43;;;2.70;;
25449;SDS011;13371;52.080;5.624;2022-07-31T00:50:56;6.15;;;2.10;;
25449;SDS011;13371;52.080;5.624;2022-07-31T00:53:22;3.30;;;2.25;;
25449;SDS011;13371;52.080;5.624;2022-07-31T00:55:47;4.40;;;2.42;;
25449;SDS011;13371;52.080;5.624;2022-07-31T00:58:13;6.60;;;2.38;;
25449;SDS011;13371;52.080;5.624;2022-07-31T01:00:38;4.05;;;2.75;;
25449;SDS011;13371;52.080;5.624;2022-07-31T01:03:04;6.05;;;2.80;;
25449;SDS011;13371;52.080;5.624;2022-07-31T01:05:29;4.75;;;2.50;;
25449;SDS011;13371;52.080;5.624;2022-07-31T01:07:55;4.85;;;3.10;;
25449;SDS011;13371;52.080;5.624;2022-07-31T01:10:43;6.03;;;3.30;;
25449;SDS011;13371;52.080;5.624;2022-07-31T01:13:08;5.45;;;2.55;;
25449;SDS011;13371;52.080;5.624;2022-07-31T01:15:44;4.25;;;2.63;;
25449;SDS011;13371;52.080;5.624;2022-07-31T01:18:11;5.95;;;2.60;;
25449;SDS011;13371;52.080;5.624;2022-07-31T01:20:38;3.60;;;2.55;;
25449;SDS011;13371;52.080;5.624;2022-07-31T01:26:17;7.30;;;2.88;;
25449;SDS011;13371;52.080;5.624;2022-07-31T01:29:01;5.20;;;3.05;;
25449;SDS011;13371;52.080;5.624;2022-07-31T01:31:51;7.97;;;3.33;;
25449;SDS011;13371;52.080;5.624;2022-07-31T01:34:26;5.80;;;3.75;;
25449;SDS011;13371;52.080;5.624;2022-07-31T01:40:03;5.65;;;3.20;;
25449;SDS011;13371;52.080;5.624;2022-07-31T01:42:33;5.60;;;3.50;;
25449;SDS011;13371;52.080;5.624;2022-07-31T01:45:02;9.05;;;3.90;;
25449;SDS011;13371;52.080;5.624;2022-07-31T01:47:30;8.10;;;3.13;;
25449;SDS011;13371;52.080;5.624;2022-07-31T01:49:57;6.68;;;3.78;;
25449;SDS011;13371;52.080;5.624;2022-07-31T01:52:25;7.28;;;3.22;;
25449;SDS011;13371;52.080;5.624;2022-07-31T01:54:53;5.95;;;3.35;;
25449;SDS011;13371;52.080;5.624;2022-07-31T01:57:20;7.68;;;3.03;;
25449;SDS011;13371;52.080;5.624;2022-07-31T01:59:49;4.35;;;2.60;;
25449;SDS011;13371;52.080;5.624;2022-07-31T02:02:17;3.30;;;2.45;;
25449;SDS011;13371;52.080;5.624;2022-07-31T02:04:44;8.85;;;2.63;;
25449;SDS011;13371;52.080;5.624;2022-07-31T02:07:11;3.40;;;2.40;;
25449;SDS011;13371;52.080;5.624;2022-07-31T02:09:39;7.47;;;3.05;;
25449;SDS011;13371;52.080;5.624;2022-07-31T02:12:08;7.43;;;2.85;;
25449;SDS011;13371;52.080;5.624;2022-07-31T02:14:35;7.50;;;2.90;;
25449;SDS011;13371;52.080;5.624;2022-07-31T02:17:04;4.47;;;2.97;;
25449;SDS011;13371;52.080;5.624;2022-07-31T02:19:31;5.35;;;3.13;;
25449;SDS011;13371;52.080;5.624;2022-07-31T02:21:58;5.05;;;2.85;;
25449;SDS011;13371;52.080;5.624;2022-07-31T02:24:24;5.88;;;2.90;;
25449;SDS011;13371;52.080;5.624;2022-07-31T02:26:50;5.75;;;3.50;;
25449;SDS011;13371;52.080;5.624;2022-07-31T02:29:16;13.20;;;3.92;;
25449;SDS011;13371;52.080;5.624;2022-07-31T02:31:44;6.40;;;4.13;;
25449;SDS011;13371;52.080;5.624;2022-07-31T02:34:12;5.13;;;3.15;;
25449;SDS011;13371;52.080;5.624;2022-07-31T02:36:38;5.45;;;3.40;;
25449;SDS011;13371;52.080;5.624;2022-07-31T02:39:05;5.18;;;3.45;;
25449;SDS011;13371;52.080;5.624;2022-07-31T02:41:33;5.93;;;3.97;;
25449;SDS011;13371;52.080;5.624;2022-07-31T02:44:00;7.78;;;4.20;;
25449;SDS011;13371;52.080;5.624;2022-07-31T02:46:26;6.35;;;3.55;;
25449;SDS011;13371;52.080;5.624;2022-07-31T02:48:52;6.30;;;3.28;;
25449;SDS011;13371;52.080;5.624;2022-07-31T02:51:19;9.25;;;4.15;;
25449;SDS011;13371;52.080;5.624;2022-07-31T02:53:46;7.95;;;3.92;;
25449;SDS011;13371;52.080;5.624;2022-07-31T02:56:11;5.63;;;3.58;;
25449;SDS011;13371;52.080;5.624;2022-07-31T02:58:40;6.57;;;3.60;;
25449;SDS011;13371;52.080;5.624;2022-07-31T03:01:06;5.38;;;3.05;;
25449;SDS011;13371;52.080;5.624;2022-07-31T03:03:32;5.18;;;2.90;;
25449;SDS011;13371;52.080;5.624;2022-07-31T03:05:58;4.85;;;3.25;;
25449;SDS011;13371;52.080;5.624;2022-07-31T03:08:24;6.18;;;3.45;;
25449;SDS011;13371;52.080;5.624;2022-07-31T03:10:51;6.28;;;3.55;;
25449;SDS011;13371;52.080;5.624;2022-07-31T03:13:17;5.72;;;3.30;;
25449;SDS011;13371;52.080;5.624;2022-07-31T03:15:45;7.68;;;3.60;;
25449;SDS011;13371;52.080;5.624;2022-07-31T03:18:12;7.75;;;3.53;;
25449;SDS011;13371;52.080;5.624;2022-07-31T03:20:41;5.82;;;3.28;;
25449;SDS011;13371;52.080;5.624;2022-07-31T03:23:07;6.57;;;3.55;;
25449;SDS011;13371;52.080;5.624;2022-07-31T03:25:35;6.45;;;3.10;;
25449;SDS011;13371;52.080;5.624;2022-07-31T03:28:00;6.30;;;3.00;;
25449;SDS011;13371;52.080;5.624;2022-07-31T03:30:26;7.85;;;4.40;;
25449;SDS011;13371;52.080;5.624;2022-07-31T03:32:52;5.35;;;3.60;;
25449;SDS011;13371;52.080;5.624;2022-07-31T03:35:18;4.53;;;3.42;;
25449;SDS011;13371;52.080;5.624;2022-07-31T03:37:44;6.43;;;3.30;;
25449;SDS011;13371;52.080;5.624;2022-07-31T03:40:10;5.30;;;3.72;;
25449;SDS011;13371;52.080;5.624;2022-07-31T03:42:36;7.45;;;3.70;;
25449;SDS011;13371;52.080;5.624;2022-07-31T03:45:03;8.52;;;4.38;;
25449;SDS011;13371;52.080;5.624;2022-07-31T03:47:31;5.45;;;4.43;;
25449;SDS011;13371;52.080;5.624;2022-07-31T03:49:56;14.07;;;5.75;;
25449;SDS011;13371;52.080;5.624;2022-07-31T03:52:24;7.90;;;5.20;;
25449;SDS011;13371;52.080;5.624;2022-07-31T03:54:50;9.23;;;5.85;;
25449;SDS011;13371;52.080;5.624;2022-07-31T03:57:16;10.05;;;6.53;;
25449;SDS011;13371;52.080;5.624;2022-07-31T03:59:42;7.32;;;5.20;;
25449;SDS011;13371;52.080;5.624;2022-07-31T04:02:09;9.38;;;5.68;;
25449;SDS011;13371;52.080;5.624;2022-07-31T04:04:35;9.00;;;5.70;;
25449;SDS011;13371;52.080;5.624;2022-07-31T04:07:02;8.55;;;6.93;;
25449;SDS011;13371;52.080;5.624;2022-07-31T04:09:29;8.52;;;5.95;;
25449;SDS011;13371;52.080;5.624;2022-07-31T04:11:55;12.00;;;6.30;;
25449;SDS011;13371;52.080;5.624;2022-07-31T04:14:21;10.57;;;6.03;;
25449;SDS011;13371;52.080;5.624;2022-07-31T04:16:47;9.13;;;5.63;;
25449;SDS011;13371;52.080;5.624;2022-07-31T04:19:12;11.30;;;5.97;;
25449;SDS011;13371;52.080;5.624;2022-07-31T04:21:38;11.02;;;6.25;;
25449;SDS011;13371;52.080;5.624;2022-07-31T04:24:04;12.27;;;6.53;;
25449;SDS011;13371;52.080;5.624;2022-07-31T04:26:30;11.52;;;5.97;;
25449;SDS011;13371;52.080;5.624;2022-07-31T04:28:55;13.73;;;6.50;;
25449;SDS011;13371;52.080;5.624;2022-07-31T04:31:21;8.52;;;5.45;;
25449;SDS011;13371;52.080;5.624;2022-07-31T04:33:47;13.40;;;5.63;;
25449;SDS011;13371;52.080;5.624;2022-07-31T04:36:13;6.97;;;5.50;;
25449;SDS011;13371;52.080;5.624;2022-07-31T04:38:38;10.32;;;5.47;;
25449;SDS011;13371;52.080;5.624;2022-07-31T04:41:04;10.00;;;5.57;;
25449;SDS011;13371;52.080;5.624;2022-07-31T04:43:30;8.25;;;5.72;;
25449;SDS011;13371;52.080;5.624;2022-07-31T04:45:55;10.70;;;6.03;;
25449;SDS011;13371;52.080;5.624;2022-07-31T04:48:21;8.88;;;5.65;;
25449;SDS011;13371;52.080;5.624;2022-07-31T04:50:47;12.13;;;6.43;;
25449;SDS011;13371;52.080;5.624;2022-07-31T04:53:13;10.30;;;6.40;;
25449;SDS011;13371;52.080;5.624;2022-07-31T04:55:38;10.77;;;5.88;;
25449;SDS011;13371;52.080;5.624;2022-07-31T04:58:04;12.05;;;6.03;;
25449;SDS011;13371;52.080;5.624;2022-07-31T05:00:29;10.65;;;6.32;;
25449;SDS011;13371;52.080;5.624;2022-07-31T05:02:55;11.35;;;7.03;;
25449;SDS011;13371;52.080;5.624;2022-07-31T05:05:20;11.82;;;7.05;;
25449;SDS011;13371;52.080;5.624;2022-07-31T05:07:46;12.70;;;7.03;;
25449;SDS011;13371;52.080;5.624;2022-07-31T05:10:11;9.43;;;6.55;;
25449;SDS011;13371;52.080;5.624;2022-07-31T05:12:57;16.85;;;7.00;;
25449;SDS011;13371;52.080;5.624;2022-07-31T05:15:22;10.65;;;7.18;;
25449;SDS011;13371;52.080;5.624;2022-07-31T05:17:48;12.23;;;7.18;;
25449;SDS011;13371;52.080;5.624;2022-07-31T05:20:14;12.77;;;7.97;;
25449;SDS011;13371;52.080;5.624;2022-07-31T05:22:40;12.25;;;8.25;;
25449;SDS011;13371;52.080;5.624;2022-07-31T05:25:06;11.05;;;8.07;;
25449;SDS011;13371;52.080;5.624;2022-07-31T05:27:31;14.65;;;8.35;;
25449;SDS011;13371;52.080;5.624;2022-07-31T05:29:58;11.60;;;8.57;;
25449;SDS011;13371;52.080;5.624;2022-07-31T05:32:23;11.73;;;7.40;;
25449;SDS011;13371;52.080;5.624;2022-07-31T05:34:49;11.57;;;8.23;;
25449;SDS011;13371;52.080;5.624;2022-07-31T05:37:14;11.48;;;6.93;;
25449;SDS011;13371;52.080;5.624;2022-07-31T05:39:40;12.07;;;6.93;;
25449;SDS011;13371;52.080;5.624;2022-07-31T05:42:05;10.82;;;6.30;;
25449;SDS011;13371;52.080;5.624;2022-07-31T05:44:31;10.45;;;6.38;;
25449;SDS011;13371;52.080;5.624;2022-07-31T05:46:57;9.27;;;6.55;;
25449;SDS011;13371;52.080;5.624;2022-07-31T05:49:23;8.20;;;5.72;;
25449;SDS011;13371;52.080;5.624;2022-07-31T05:51:50;7.82;;;5.93;;
25449;SDS011;13371;52.080;5.624;2022-07-31T05:54:18;8.02;;;5.55;;
25449;SDS011;13371;52.080;5.624;2022-07-31T05:56:44;8.75;;;5.55;;
25449;SDS011;13371;52.080;5.624;2022-07-31T05:59:09;8.30;;;6.10;;
25449;SDS011;13371;52.080;5.624;2022-07-31T06:01:35;8.93;;;6.13;;
25449;SDS011;13371;52.080;5.624;2022-07-31T06:04:01;12.48;;;6.35;;
25449;SDS011;13371;52.080;5.624;2022-07-31T06:06:27;13.43;;;6.28;;
25449;SDS011;13371;52.080;5.624;2022-07-31T06:08:52;13.55;;;7.10;;
25449;SDS011;13371;52.080;5.624;2022-07-31T06:11:19;11.95;;;6.35;;
25449;SDS011;13371;52.080;5.624;2022-07-31T06:13:45;11.00;;;6.97;;
25449;SDS011;13371;52.080;5.624;2022-07-31T06:16:11;9.00;;;6.28;;
25449;SDS011;13371;52.080;5.624;2022-07-31T06:18:37;9.40;;;5.80;;
25449;SDS011;13371;52.080;5.624;2022-07-31T06:21:03;13.95;;;7.20;;
25449;SDS011;13371;52.080;5.624;2022-07-31T06:23:29;16.65;;;7.45;;
25449;SDS011;13371;52.080;5.624;2022-07-31T06:25:55;11.05;;;7.35;;
25449;SDS011;13371;52.080;5.624;2022-07-31T06:28:21;12.95;;;7.40;;
25449;SDS011;13371;52.080;5.624;2022-07-31T06:30:46;13.98;;;7.63;;
25449;SDS011;13371;52.080;5.624;2022-07-31T06:33:12;9.15;;;6.85;;
25449;SDS011;13371;52.080;5.624;2022-07-31T06:35:37;14.45;;;7.53;;
25449;SDS011;13371;52.080;5.624;2022-07-31T06:38:03;12.02;;;7.70;;
25449;SDS011;13371;52.080;5.624;2022-07-31T06:40:28;15.10;;;8.40;;
25449;SDS011;13371;52.080;5.624;2022-07-31T06:42:54;12.05;;;8.07;;
25449;SDS011;13371;52.080;5.624;2022-07-31T06:45:20;14.48;;;8.55;;
25449;SDS011;13371;52.080;5.624;2022-07-31T06:47:45;16.73;;;8.63;;
25449;SDS011;13371;52.080;5.624;2022-07-31T06:50:11;12.70;;;7.82;;
25449;SDS011;13371;52.080;5.624;2022-07-31T06:52:37;12.35;;;7.80;;
25449;SDS011;13371;52.080;5.624;2022-07-31T06:55:03;12.10;;;7.82;;
25449;SDS011;13371;52.080;5.624;2022-07-31T06:57:30;10.55;;;7.85;;
25449;SDS011;13371;52.080;5.624;2022-07-31T06:59:56;11.85;;;8.13;;
25449;SDS011;13371;52.080;5.624;2022-07-31T07:02:21;13.48;;;8.55;;
25449;SDS011;13371;52.080;5.624;2022-07-31T07:04:47;15.55;;;8.98;;
25449;SDS011;13371;52.080;5.624;2022-07-31T07:07:13;11.80;;;7.68;;
25449;SDS011;13371;52.080;5.624;2022-07-31T07:09:38;11.98;;;8.10;;
25449;SDS011;13371;52.080;5.624;2022-07-31T07:12:04;12.90;;;8.57;;
25449;SDS011;13371;52.080;5.624;2022-07-31T07:14:29;14.07;;;8.35;;
25449;SDS011;13371;52.080;5.624;2022-07-31T07:16:55;16.20;;;9.25;;
25449;SDS011;13371;52.080;5.624;2022-07-31T07:19:20;17.10;;;9.05;;
25449;SDS011;13371;52.080;5.624;2022-07-31T07:21:46;14.70;;;8.90;;
25449;SDS011;13371;52.080;5.624;2022-07-31T07:24:12;12.25;;;8.40;;
25449;SDS011;13371;52.080;5.624;2022-07-31T07:26:37;20.92;;;10.30;;
25449;SDS011;13371;52.080;5.624;2022-07-31T07:29:03;16.73;;;9.18;;
25449;SDS011;13371;52.080;5.624;2022-07-31T07:31:28;14.20;;;9.40;;
25449;SDS011;13371;52.080;5.624;2022-07-31T07:33:54;20.33;;;10.15;;
25449;SDS011;13371;52.080;5.624;2022-07-31T07:36:20;16.58;;;10.40;;
25449;SDS011;13371;52.080;5.624;2022-07-31T07:38:46;20.50;;;9.85;;
25449;SDS011;13371;52.080;5.624;2022-07-31T07:41:11;17.48;;;10.20;;
25449;SDS011;13371;52.080;5.624;2022-07-31T07:43:37;18.95;;;10.50;;
25449;SDS011;13371;52.080;5.624;2022-07-31T07:46:03;20.75;;;11.20;;
25449;SDS011;13371;52.080;5.624;2022-07-31T07:48:28;17.42;;;9.57;;
25449;SDS011;13371;52.080;5.624;2022-07-31T07:50:54;17.27;;;10.23;;
25449;SDS011;13371;52.080;5.624;2022-07-31T07:53:19;17.52;;;9.95;;
25449;SDS011;13371;52.080;5.624;2022-07-31T07:55:45;17.67;;;10.45;;
25449;SDS011;13371;52.080;5.624;2022-07-31T07:58:11;19.50;;;10.82;;
25449;SDS011;13371;52.080;5.624;2022-07-31T08:00:36;19.90;;;11.73;;
25449;SDS011;13371;52.080;5.624;2022-07-31T08:03:02;15.25;;;11.02;;
25449;SDS011;13371;52.080;5.624;2022-07-31T08:05:27;20.55;;;12.32;;
25449;SDS011;13371;52.080;5.624;2022-07-31T08:07:53;17.67;;;12.35;;
25449;SDS011;13371;52.080;5.624;2022-07-31T08:10:18;20.63;;;12.18;;
25449;SDS011;13371;52.080;5.624;2022-07-31T08:12:44;21.42;;;13.10;;
25449;SDS011;13371;52.080;5.624;2022-07-31T08:15:10;19.70;;;11.45;;
25449;SDS011;13371;52.080;5.624;2022-07-31T08:17:37;17.35;;;12.25;;
25449;SDS011;13371;52.080;5.624;2022-07-31T08:20:03;19.23;;;12.57;;
25449;SDS011;13371;52.080;5.624;2022-07-31T08:22:29;19.48;;;12.50;;
25449;SDS011;13371;52.080;5.624;2022-07-31T08:24:55;18.27;;;12.10;;
25449;SDS011;13371;52.080;5.624;2022-07-31T08:27:21;18.35;;;11.90;;
25449;SDS011;13371;52.080;5.624;2022-07-31T08:29:49;17.80;;;12.10;;
25449;SDS011;13371;52.080;5.624;2022-07-31T08:32:16;18.00;;;12.32;;
25449;SDS011;13371;52.080;5.624;2022-07-31T08:34:42;19.90;;;12.20;;
25449;SDS011;13371;52.080;5.624;2022-07-31T08:37:07;19.30;;;12.27;;
25449;SDS011;13371;52.080;5.624;2022-07-31T08:39:33;18.85;;;12.93;;
25449;SDS011;13371;52.080;5.624;2022-07-31T08:42:04;21.83;;;12.38;;
25449;SDS011;13371;52.080;5.624;2022-07-31T08:44:30;18.02;;;12.63;;
25449;SDS011;13371;52.080;5.624;2022-07-31T08:46:56;22.83;;;13.07;;
25449;SDS011;13371;52.080;5.624;2022-07-31T08:49:25;19.70;;;12.77;;
25449;SDS011;13371;52.080;5.624;2022-07-31T08:51:53;22.33;;;12.68;;
25449;SDS011;13371;52.080;5.624;2022-07-31T08:54:19;22.05;;;14.18;;
25449;SDS011;13371;52.080;5.624;2022-07-31T08:56:45;24.00;;;13.82;;
25449;SDS011;13371;52.080;5.624;2022-07-31T08:59:16;23.30;;;14.02;;
25449;SDS011;13371;52.080;5.624;2022-07-31T09:01:42;22.83;;;14.02;;
25449;SDS011;13371;52.080;5.624;2022-07-31T09:04:08;26.80;;;14.88;;
25449;SDS011;13371;52.080;5.624;2022-07-31T09:06:35;26.00;;;15.75;;
25449;SDS011;13371;52.080;5.624;2022-07-31T09:09:00;25.83;;;15.38;;
25449;SDS011;13371;52.080;5.624;2022-07-31T09:11:26;23.48;;;15.70;;
25449;SDS011;13371;52.080;5.624;2022-07-31T09:16:17;23.08;;;15.40;;
25449;SDS011;13371;52.080;5.624;2022-07-31T09:18:43;25.02;;;15.65;;
25449;SDS011;13371;52.080;5.624;2022-07-31T09:21:18;27.70;;;16.15;;
25449;SDS011;13371;52.080;5.624;2022-07-31T09:23:44;27.05;;;16.23;;
25449;SDS011;13371;52.080;5.624;2022-07-31T09:26:10;26.95;;;16.50;;
25449;SDS011;13371;52.080;5.624;2022-07-31T09:28:37;26.13;;;16.85;;
25449;SDS011;13371;52.080;5.624;2022-07-31T09:31:06;32.92;;;18.73;;
25449;SDS011;13371;52.080;5.624;2022-07-31T09:33:32;29.30;;;16.38;;
25449;SDS011;13371;52.080;5.624;2022-07-31T09:36:00;27.33;;;15.88;;
25449;SDS011;13371;52.080;5.624;2022-07-31T09:38:36;30.50;;;16.85;;
25449;SDS011;13371;52.080;5.624;2022-07-31T09:41:14;29.75;;;17.70;;
25449;SDS011;13371;52.080;5.624;2022-07-31T09:43:54;28.73;;;16.05;;
25449;SDS011;13371;52.080;5.624;2022-07-31T09:46:21;30.35;;;18.73;;
25449;SDS011;13371;52.080;5.624;2022-07-31T09:48:50;30.52;;;17.02;;
25449;SDS011;13371;52.080;5.624;2022-07-31T09:51:17;25.27;;;16.70;;
25449;SDS011;13371;52.080;5.624;2022-07-31T09:53:43;28.98;;;18.02;;
25449;SDS011;13371;52.080;5.624;2022-07-31T09:56:10;25.48;;;17.25;;
25449;SDS011;13371;52.080;5.624;2022-07-31T09:58:38;32.67;;;20.80;;
25449;SDS011;13371;52.080;5.624;2022-07-31T10:01:05;29.63;;;20.27;;
25449;SDS011;13371;52.080;5.624;2022-07-31T10:03:34;32.42;;;19.67;;
25449;SDS011;13371;52.080;5.624;2022-07-31T10:06:02;32.03;;;19.85;;
25449;SDS011;13371;52.080;5.624;2022-07-31T10:08:30;30.38;;;20.98;;
25449;SDS011;13371;52.080;5.624;2022-07-31T10:11:00;29.77;;;19.80;;
25449;SDS011;13371;52.080;5.624;2022-07-31T10:13:26;33.05;;;20.45;;
25449;SDS011;13371;52.080;5.624;2022-07-31T10:15:53;30.08;;;19.73;;
25449;SDS011;13371;52.080;5.624;2022-07-31T10:18:22;31.13;;;18.83;;
25449;SDS011;13371;52.080;5.624;2022-07-31T10:20:51;30.80;;;19.45;;
25449;SDS011;13371;52.080;5.624;2022-07-31T10:23:20;30.67;;;21.17;;
25449;SDS011;13371;52.080;5.624;2022-07-31T10:25:48;31.38;;;20.98;;
25449;SDS011;13371;52.080;5.624;2022-07-31T10:28:16;34.38;;;20.95;;
25449;SDS011;13371;52.080;5.624;2022-07-31T10:30:43;29.92;;;20.73;;
25449;SDS011;13371;52.080;5.624;2022-07-31T10:33:10;32.00;;;21.63;;
25449;SDS011;13371;52.080;5.624;2022-07-31T10:35:44;28.98;;;20.00;;
25449;SDS011;13371;52.080;5.624;2022-07-31T10:38:49;32.63;;;20.48;;
25449;SDS011;13371;52.080;5.624;2022-07-31T10:44:30;28.52;;;18.92;;
25449;SDS011;13371;52.080;5.624;2022-07-31T10:47:09;29.05;;;20.10;;
25449;SDS011;13371;52.080;5.624;2022-07-31T10:49:37;32.33;;;20.85;;
25449;SDS011;13371;52.080;5.624;2022-07-31T10:52:07;32.95;;;21.15;;
25449;SDS011;13371;52.080;5.624;2022-07-31T10:54:40;31.50;;;21.48;;
25449;SDS011;13371;52.080;5.624;2022-07-31T10:57:08;35.30;;;20.90;;
25449;SDS011;13371;52.080;5.624;2022-07-31T10:59:44;34.42;;;22.73;;
25449;SDS011;13371;52.080;5.624;2022-07-31T11:02:10;35.33;;;22.55;;
25449;SDS011;13371;52.080;5.624;2022-07-31T11:04:35;39.28;;;23.98;;
25449;SDS011;13371;52.080;5.624;2022-07-31T11:07:01;33.63;;;25.15;;
25449;SDS011;13371;52.080;5.624;2022-07-31T11:09:38;36.92;;;23.88;;
25449;SDS011;13371;52.080;5.624;2022-07-31T11:12:15;35.10;;;25.45;;
25449;SDS011;13371;52.080;5.624;2022-07-31T11:14:44;38.42;;;26.80;;
25449;SDS011;13371;52.080;5.624;2022-07-31T11:17:10;35.05;;;25.80;;
25449;SDS011;13371;52.080;5.624;2022-07-31T11:19:36;35.00;;;26.27;;
25449;SDS011;13371;52.080;5.624;2022-07-31T11:22:10;37.13;;;26.17;;
25449;SDS011;13371;52.080;5.624;2022-07-31T11:24:37;41.97;;;27.65;;
25449;SDS011;13371;52.080;5.624;2022-07-31T11:27:03;40.63;;;25.75;;
25449;SDS011;13371;52.080;5.624;2022-07-31T11:29:30;37.67;;;26.60;;
25449;SDS011;13371;52.080;5.624;2022-07-31T11:34:28;36.08;;;26.83;;
25449;SDS011;13371;52.080;5.624;2022-07-31T11:36:55;38.30;;;26.98;;
25449;SDS011;13371;52.080;5.624;2022-07-31T11:39:20;38.90;;;27.55;;
25449;SDS011;13371;52.080;5.624;2022-07-31T11:41:48;36.33;;;27.58;;
25449;SDS011;13371;52.080;5.624;2022-07-31T11:44:19;34.33;;;25.98;;
25449;SDS011;13371;52.080;5.624;2022-07-31T11:46:47;35.20;;;25.15;;
25449;SDS011;13371;52.080;5.624;2022-07-31T11:49:20;34.55;;;26.02;;
25449;SDS011;13371;52.080;5.624;2022-07-31T11:51:47;31.38;;;25.55;;
25449;SDS011;13371;52.080;5.624;2022-07-31T11:54:23;34.92;;;26.25;;
25449;SDS011;13371;52.080;5.624;2022-07-31T11:56:55;30.02;;;24.80;;
25449;SDS011;13371;52.080;5.624;2022-07-31T11:59:28;34.78;;;24.90;;
25449;SDS011;13371;52.080;5.624;2022-07-31T12:02:01;35.00;;;25.10;;
25449;SDS011;13371;52.080;5.624;2022-07-31T12:04:29;28.85;;;23.13;;
25449;SDS011;13371;52.080;5.624;2022-07-31T12:06:55;29.75;;;23.33;;
25449;SDS011;13371;52.080;5.624;2022-07-31T12:09:21;27.50;;;22.38;;
25449;SDS011;13371;52.080;5.624;2022-07-31T12:11:47;33.92;;;21.92;;
25449;SDS011;13371;52.080;5.624;2022-07-31T12:14:13;26.08;;;21.40;;
25449;SDS011;13371;52.080;5.624;2022-07-31T12:16:39;27.92;;;21.98;;
25449;SDS011;13371;52.080;5.624;2022-07-31T12:19:05;27.08;;;20.80;;
25449;SDS011;13371;52.080;5.624;2022-07-31T12:21:32;24.45;;;19.75;;
25449;SDS011;13371;52.080;5.624;2022-07-31T12:23:59;25.38;;;20.35;;
25449;SDS011;13371;52.080;5.624;2022-07-31T12:26:31;21.58;;;19.13;;
25449;SDS011;13371;52.080;5.624;2022-07-31T12:31:23;23.20;;;18.15;;
25449;SDS011;13371;52.080;5.624;2022-07-31T12:33:48;21.15;;;17.30;;
25449;SDS011;13371;52.080;5.624;2022-07-31T12:36:15;19.70;;;16.08;;
25449;SDS011;13371;52.080;5.624;2022-07-31T12:38:41;19.95;;;15.73;;
25449;SDS011;13371;52.080;5.624;2022-07-31T12:41:08;17.95;;;15.10;;
25449;SDS011;13371;52.080;5.624;2022-07-31T12:43:34;17.92;;;13.52;;
25449;SDS011;13371;52.080;5.624;2022-07-31T12:46:00;16.33;;;12.88;;
25449;SDS011;13371;52.080;5.624;2022-07-31T12:48:29;15.98;;;12.38;;
25449;SDS011;13371;52.080;5.624;2022-07-31T12:50:56;17.35;;;11.50;;
25449;SDS011;13371;52.080;5.624;2022-07-31T12:53:22;16.08;;;11.40;;
25449;SDS011;13371;52.080;5.624;2022-07-31T12:55:47;14.05;;;11.60;;
25449;SDS011;13371;52.080;5.624;2022-07-31T12:58:13;14.02;;;10.93;;
25449;SDS011;13371;52.080;5.624;2022-07-31T13:00:42;16.40;;;10.57;;
25449;SDS011;13371;52.080;5.624;2022-07-31T13:03:07;15.05;;;10.38;;
25449;SDS011;13371;52.080;5.624;2022-07-31T13:05:33;16.58;;;10.77;;
25449;SDS011;13371;52.080;5.624;2022-07-31T13:07:58;15.27;;;9.88;;
25449;SDS011;13371;52.080;5.624;2022-07-31T13:10:24;13.98;;;9.50;;
25449;SDS011;13371;52.080;5.624;2022-07-31T13:12:52;14.63;;;10.25;;
25449;SDS011;13371;52.080;5.624;2022-07-31T13:15:18;13.60;;;9.75;;
25449;SDS011;13371;52.080;5.624;2022-07-31T13:17:47;13.75;;;8.57;;
25449;SDS011;13371;52.080;5.624;2022-07-31T13:20:12;14.40;;;9.18;;
25449;SDS011;13371;52.080;5.624;2022-07-31T13:22:38;12.38;;;8.52;;
25449;SDS011;13371;52.080;5.624;2022-07-31T13:25:06;15.15;;;8.02;;
25449;SDS011;13371;52.080;5.624;2022-07-31T13:27:32;12.75;;;8.13;;
25449;SDS011;13371;52.080;5.624;2022-07-31T13:30:00;12.68;;;8.43;;
25449;SDS011;13371;52.080;5.624;2022-07-31T13:32:26;15.55;;;8.52;;
25449;SDS011;13371;52.080;5.624;2022-07-31T13:34:51;11.10;;;8.20;;
25449;SDS011;13371;52.080;5.624;2022-07-31T13:37:17;12.40;;;7.85;;
25449;SDS011;13371;52.080;5.624;2022-07-31T13:39:43;14.88;;;7.90;;
25449;SDS011;13371;52.080;5.624;2022-07-31T13:42:08;14.85;;;8.07;;
25449;SDS011;13371;52.080;5.624;2022-07-31T13:44:34;14.82;;;8.00;;
25449;SDS011;13371;52.080;5.624;2022-07-31T13:46:59;12.55;;;8.10;;
25449;SDS011;13371;52.080;5.624;2022-07-31T13:49:25;14.18;;;8.57;;
25449;SDS011;13371;52.080;5.624;2022-07-31T13:51:56;11.95;;;8.07;;
25449;SDS011;13371;52.080;5.624;2022-07-31T13:54:23;11.27;;;8.00;;
25449;SDS011;13371;52.080;5.624;2022-07-31T13:56:48;15.27;;;8.85;;
25449;SDS011;13371;52.080;5.624;2022-07-31T13:59:14;12.70;;;8.57;;
25449;SDS011;13371;52.080;5.624;2022-07-31T14:01:40;13.13;;;8.25;;
25449;SDS011;13371;52.080;5.624;2022-07-31T14:04:06;13.63;;;7.85;;
25449;SDS011;13371;52.080;5.624;2022-07-31T14:06:32;12.10;;;8.85;;
25449;SDS011;13371;52.080;5.624;2022-07-31T14:08:58;14.43;;;8.25;;
25449;SDS011;13371;52.080;5.624;2022-07-31T14:11:23;13.50;;;7.63;;
25449;SDS011;13371;52.080;5.624;2022-07-31T14:13:49;11.55;;;6.53;;
25449;SDS011;13371;52.080;5.624;2022-07-31T14:16:17;6.97;;;4.88;;
25449;SDS011;13371;52.080;5.624;2022-07-31T14:18:42;10.05;;;5.13;;
25449;SDS011;13371;52.080;5.624;2022-07-31T14:21:08;10.00;;;5.40;;
25449;SDS011;13371;52.080;5.624;2022-07-31T14:23:36;6.70;;;4.93;;
25449;SDS011;13371;52.080;5.624;2022-07-31T14:26:02;9.43;;;5.30;;
25449;SDS011;13371;52.080;5.624;2022-07-31T14:28:29;6.40;;;4.35;;
25449;SDS011;13371;52.080;5.624;2022-07-31T14:30:55;8.07;;;3.88;;
25449;SDS011;13371;52.080;5.624;2022-07-31T14:33:20;6.03;;;3.25;;
25449;SDS011;13371;52.080;5.624;2022-07-31T14:35:46;7.30;;;3.00;;
25449;SDS011;13371;52.080;5.624;2022-07-31T14:38:11;5.10;;;3.03;;
25449;SDS011;13371;52.080;5.624;2022-07-31T14:40:40;6.80;;;3.38;;
25449;SDS011;13371;52.080;5.624;2022-07-31T14:43:05;6.82;;;2.72;;
25449;SDS011;13371;52.080;5.624;2022-07-31T14:45:34;7.00;;;2.47;;
25449;SDS011;13371;52.080;5.624;2022-07-31T14:48:03;6.05;;;2.45;;
25449;SDS011;13371;52.080;5.624;2022-07-31T14:50:29;6.97;;;3.20;;